PWSweather.com
Personal Weather Stations
Station Observations
SWHWX01
St AppolinardFR 38160

St AppolinardFR 38160

Lat: 45.191, Lon: 5.268

Elevation: 1460

Station Type: Davis Vantage Pro2 Plus

www.sweetwebhome.com/?show=wxindex

High Low Average
Temperature 87.7°F30.9°F 69.0°F20.6°F 78.1°F25.6°F
Dew Point 71.6°F22.0°F 64.2°F17.9°F 68.4°F20.2°F
Winds 6.3 mph WSW10.1 mph WSW Calm Calm 2.4 mph 3.9 mph
Wind Gusts 10.0 mph16.1 mph -- 4.4 mph7.1 mph
Humidity 89% 52% 73%
Pressure 30.01 in1016.30 in 29.95 in1014.20 in -
Precipitation 0.00 in0.00 in - -
Hour Temp Dew Point Humidity Winds Wind Gusts Pressure Precip Precip Rate Daily Precip Total
12:00 AM 74.7°F23.7°C 68.8°F20.4°C 82% 1.8 mph WSW2.9 kmh WSW 3.0 mph4.8 kmh 29.97 in1014.9 mb - 0.00 in0.0 mm 0.00 in0.0 mm
12:30 AM 74.4°F23.6°C 68.5°F20.3°C 82% 0.3 mph WSW0.5 kmh WSW 1.0 mph1.6 kmh 29.97 in1014.9 mb - 0.00 in0.0 mm 0.00 in0.0 mm
01:00 AM 74.0°F23.3°C 68.2°F20.1°C 82% 2.2 mph WSW3.5 kmh WSW 4.0 mph6.4 kmh 29.96 in1014.6 mb - 0.00 in0.0 mm 0.00 in0.0 mm
01:30 AM 74.2°F23.4°C 68.3°F20.2°C 82% 1.4 mph WSW2.3 kmh WSW 2.0 mph3.2 kmh 29.97 in1014.9 mb - 0.00 in0.0 mm 0.00 in0.0 mm
02:00 AM 72.8°F22.7°C 67.7°F19.8°C 84% 1.5 mph WSW2.4 kmh WSW 2.0 mph3.2 kmh 29.96 in1014.6 mb - 0.00 in0.0 mm 0.00 in0.0 mm
02:30 AM 72.4°F22.4°C 67.6°F19.8°C 85% 1.4 mph WSW2.3 kmh WSW 2.0 mph3.2 kmh 29.96 in1014.6 mb - 0.00 in0.0 mm 0.00 in0.0 mm
03:00 AM 71.3°F21.8°C 66.6°F19.2°C 85% Calm Calm -- 29.95 in1014.2 mb - 0.00 in0.0 mm 0.00 in0.0 mm
03:30 AM 71.0°F21.7°C 66.9°F19.4°C 87% 0.1 mph WSW0.2 kmh WSW 1.0 mph1.6 kmh 29.96 in1014.6 mb - 0.00 in0.0 mm 0.00 in0.0 mm
04:00 AM 70.5°F21.4°C 66.5°F19.2°C 87% 0.9 mph WSW1.4 kmh WSW 3.0 mph4.8 kmh 29.96 in1014.6 mb - 0.00 in0.0 mm 0.00 in0.0 mm
04:30 AM 69.8°F21.0°C 64.7°F18.2°C 84% 0.3 mph WSW0.5 kmh WSW 2.0 mph3.2 kmh 29.96 in1014.6 mb - 0.00 in0.0 mm 0.00 in0.0 mm
05:00 AM 69.2°F20.7°C 64.2°F17.9°C 84% 0.7 mph WSW1.1 kmh WSW 2.0 mph3.2 kmh 29.97 in1014.9 mb - 0.00 in0.0 mm 0.00 in0.0 mm
05:30 AM 69.0°F20.6°C 65.3°F18.5°C 88% 1.3 mph WSW2.1 kmh WSW 1.0 mph1.6 kmh 29.97 in1014.9 mb - 0.00 in0.0 mm 0.00 in0.0 mm
06:00 AM 69.5°F20.8°C 66.1°F18.9°C 89% Calm Calm -- 29.98 in1015.2 mb - 0.00 in0.0 mm 0.00 in0.0 mm
06:30 AM 70.0°F21.1°C 66.6°F19.2°C 89% 1.9 mph WSW3.1 kmh WSW 5.0 mph8.0 kmh 29.98 in1015.2 mb - 0.00 in0.0 mm 0.00 in0.0 mm
07:00 AM 71.0°F21.7°C 66.6°F19.2°C 86% 0.6 mph WSW1.0 kmh WSW 3.0 mph4.8 kmh 29.99 in1015.6 mb - 0.00 in0.0 mm 0.00 in0.0 mm
07:30 AM 71.5°F21.9°C 66.8°F19.3°C 85% 2.8 mph WSW4.5 kmh WSW 5.0 mph8.0 kmh 30.00 in1015.9 mb - 0.00 in0.0 mm 0.00 in0.0 mm
08:00 AM 72.7°F22.6°C 66.9°F19.4°C 82% 1.4 mph WSW2.3 kmh WSW 2.0 mph3.2 kmh 30.00 in1015.9 mb - 0.00 in0.0 mm 0.00 in0.0 mm
08:30 AM 74.3°F23.5°C 67.7°F19.8°C 80% 0.9 mph WSW1.4 kmh WSW 2.0 mph3.2 kmh 30.00 in1015.9 mb - 0.00 in0.0 mm 0.00 in0.0 mm
09:00 AM 75.5°F24.2°C 67.8°F19.9°C 77% 1.7 mph WSW2.7 kmh WSW 2.0 mph3.2 kmh 30.01 in1016.3 mb - 0.00 in0.0 mm 0.00 in0.0 mm
09:30 AM 77.2°F25.1°C 69.0°F20.6°C 76% 0.3 mph WSW0.5 kmh WSW 3.0 mph4.8 kmh 30.01 in1016.3 mb - 0.00 in0.0 mm 0.00 in0.0 mm
10:00 AM 78.2°F25.7°C 68.8°F20.4°C 73% 2.5 mph SW4.0 kmh SW 2.0 mph3.2 kmh 30.00 in1015.9 mb - 0.00 in0.0 mm 0.00 in0.0 mm
10:30 AM 79.6°F26.4°C 69.8°F21.0°C 72% 2.1 mph SW3.4 kmh SW 6.0 mph9.7 kmh 30.00 in1015.9 mb - 0.00 in0.0 mm 0.00 in0.0 mm
11:00 AM 79.1°F26.2°C 69.7°F20.9°C 73% 2.6 mph SW4.2 kmh SW 7.0 mph11.3 kmh 30.00 in1015.9 mb - 0.00 in0.0 mm 0.00 in0.0 mm
11:30 AM 81.2°F27.3°C 70.5°F21.4°C 70% 3.6 mph SSW5.8 kmh SSW 7.0 mph11.3 kmh 30.00 in1015.9 mb - 0.00 in0.0 mm 0.00 in0.0 mm
12:00 PM 81.6°F27.6°C 70.4°F21.3°C 69% 2.8 mph S4.5 kmh S 6.0 mph9.7 kmh 30.00 in1015.9 mb - 0.00 in0.0 mm 0.00 in0.0 mm
12:30 PM 84.0°F28.9°C 71.4°F21.9°C 66% 2.4 mph S3.9 kmh S 8.0 mph12.9 kmh 29.99 in1015.6 mb - 0.00 in0.0 mm 0.00 in0.0 mm
01:00 PM 84.7°F29.3°C 70.2°F21.2°C 62% 4.9 mph SSW7.9 kmh SSW 6.0 mph9.7 kmh 29.98 in1015.2 mb - 0.00 in0.0 mm 0.00 in0.0 mm
01:30 PM 87.2°F30.7°C 71.6°F22.0°C 60% 1.3 mph SW2.1 kmh SW 4.0 mph6.4 kmh 29.98 in1015.2 mb - 0.00 in0.0 mm 0.00 in0.0 mm
02:00 PM 86.8°F30.4°C 68.7°F20.4°C 55% 2.5 mph SW4.0 kmh SW 5.0 mph8.0 kmh 29.97 in1014.9 mb - 0.00 in0.0 mm 0.00 in0.0 mm
02:30 PM 87.0°F30.6°C 67.2°F19.6°C 52% 0.9 mph SW1.4 kmh SW 2.0 mph3.2 kmh 29.97 in1014.9 mb - 0.00 in0.0 mm 0.00 in0.0 mm
03:00 PM 86.3°F30.2°C 68.2°F20.1°C 55% 1.1 mph SW1.8 kmh SW 3.0 mph4.8 kmh 29.97 in1014.9 mb - 0.00 in0.0 mm 0.00 in0.0 mm
03:30 PM 87.7°F30.9°C 68.4°F20.2°C 53% 1.8 mph SW2.9 kmh SW 3.0 mph4.8 kmh 29.97 in1014.9 mb - 0.00 in0.0 mm 0.00 in0.0 mm
04:00 PM 84.4°F29.1°C 69.0°F20.6°C 60% 2.9 mph SW4.7 kmh SW 5.0 mph8.0 kmh 29.97 in1014.9 mb - 0.00 in0.0 mm 0.00 in0.0 mm
04:30 PM 86.9°F30.5°C 69.9°F21.1°C 57% 5.7 mph S9.2 kmh S 10.0 mph16.1 kmh 29.97 in1014.9 mb - 0.00 in0.0 mm 0.00 in0.0 mm
05:00 PM 86.4°F30.2°C 67.8°F19.9°C 54% 3.2 mph SSW5.1 kmh SSW 3.0 mph4.8 kmh 29.96 in1014.6 mb - 0.00 in0.0 mm 0.00 in0.0 mm
05:30 PM 86.8°F30.4°C 68.7°F20.4°C 55% 3.9 mph SSW6.3 kmh SSW 6.0 mph9.7 kmh 29.95 in1014.2 mb - 0.00 in0.0 mm 0.00 in0.0 mm
06:00 PM 86.5°F30.3°C 69.0°F20.6°C 56% 3.5 mph SSW5.6 kmh SSW 7.0 mph11.3 kmh 29.95 in1014.2 mb - 0.00 in0.0 mm 0.00 in0.0 mm
06:30 PM 84.6°F29.2°C 68.2°F20.1°C 58% 1.3 mph SW2.1 kmh SW 3.0 mph4.8 kmh 29.96 in1014.6 mb - 0.00 in0.0 mm 0.00 in0.0 mm
07:00 PM 83.8°F28.8°C 69.8°F21.0°C 63% 4.9 mph SW7.9 kmh SW 7.0 mph11.3 kmh 29.97 in1014.9 mb - 0.00 in0.0 mm 0.00 in0.0 mm
07:30 PM 81.5°F27.5°C 70.3°F21.3°C 69% 6.3 mph WSW10.1 kmh WSW 8.0 mph12.9 kmh 29.97 in1014.9 mb - 0.00 in0.0 mm 0.00 in0.0 mm
08:00 PM 80.0°F26.7°C 70.2°F21.2°C 72% 3.9 mph SW6.3 kmh SW 7.0 mph11.3 kmh 29.97 in1014.9 mb - 0.00 in0.0 mm 0.00 in0.0 mm
08:30 PM 79.5°F26.4°C 69.7°F20.9°C 72% 5.6 mph WSW9.0 kmh WSW 8.0 mph12.9 kmh 29.98 in1015.2 mb - 0.00 in0.0 mm 0.00 in0.0 mm
09:00 PM 78.9°F26.1°C 69.9°F21.1°C 74% 3.0 mph WSW4.8 kmh WSW 3.0 mph4.8 kmh 29.98 in1015.2 mb - 0.00 in0.0 mm 0.00 in0.0 mm
09:30 PM 78.1°F25.6°C 70.3°F21.3°C 77% 3.6 mph WSW5.8 kmh WSW 6.0 mph9.7 kmh 29.99 in1015.6 mb - 0.00 in0.0 mm 0.00 in0.0 mm
10:00 PM 77.2°F25.1°C 69.8°F21.0°C 78% 5.3 mph SW8.5 kmh SW 9.0 mph14.5 kmh 30.00 in1015.9 mb - 0.00 in0.0 mm 0.00 in0.0 mm
10:30 PM 76.2°F24.6°C 69.6°F20.9°C 80% 4.6 mph WSW7.4 kmh WSW 9.0 mph14.5 kmh 30.00 in1015.9 mb - 0.00 in0.0 mm 0.00 in0.0 mm
11:00 PM 75.1°F23.9°C 68.5°F20.3°C 80% 4.7 mph WSW7.6 kmh WSW 8.0 mph12.9 kmh 30.01 in1016.3 mb - 0.00 in0.0 mm 0.00 in0.0 mm
11:30 PM 74.6°F23.7°C 67.3°F19.6°C 78% 3.7 mph WSW6.0 kmh WSW 6.0 mph9.7 kmh 30.01 in1016.3 mb - 0.00 in0.0 mm 0.00 in0.0 mm